Stations météo

Publicité
Fichtelberg, Allemagne (10578): Température de l'air & dewpoint: 19.06.2018 05:00:00 - 25.06.2018 05:00:00 (CEST)Fichtelberg, Allemagne (10578): Température de l'air 5cm & Température de l'air -5cm: 19.06.2018 05:00:00 - 25.06.2018 05:00:00 (CEST)Fichtelberg, Allemagne (10578): Température de l'air -20cm & Température de l'air -100cm: 19.06.2018 05:00:00 - 25.06.2018 05:00:00 (CEST)Fichtelberg, Allemagne (10578): Vitesse du vent & gusts: 19.06.2018 05:00:00 - 25.06.2018 05:00:00 (CEST)Fichtelberg, Allemagne (10578): Direction du vent: 19.06.2018 05:00:00 - 25.06.2018 05:00:00 (CEST)Fichtelberg, Allemagne (10578): visibility: 19.06.2018 05:00:00 - 25.06.2018 05:00:00 (CEST)Fichtelberg, Allemagne (10578): Ensoleillement: 19.06.2018 05:00:00 - 25.06.2018 05:00:00 (CEST)Fichtelberg, Allemagne (10578): Quantités de précipitations: 19.06.2018 05:00:00 - 25.06.2018 05:00:00 (CEST)
Date & Time tt [°C] td [°C] tt 5cm [°C] tt -5cm [°C] tt -20cm [°C] tt -100cm [°C] ff [km/h] ff [knt] fx [km/h] fx [knt] dd vv [km] sd [min] rr [mm]
25.06.2018 05:00:00 6,0 5,9 6,0 7,5 9,5 11,2 21 12 29 15 WNW 0,1 0 -
25.06.2018 04:00:00 5,9 5,7 5,9 7,6 9,6 11,2 19 10 26 14 WNW 0,1 0 -
25.06.2018 03:00:00 5,7 5,6 5,7 7,6 9,7 11,2 19 11 34 18 WNW 0,1 0 -
25.06.2018 02:00:00 5,5 5,4 5,5 7,6 9,8 11,2 25 13 33 18 WNW 0,1 0 -
25.06.2018 01:00:00 5,4 5,3 5,4 7,7 9,9 11,2 26 14 35 19 NW 0,1 0 -
25.06.2018 00:00:00 5,2 5,1 5,2 7,9 10,0 11,2 27 15 41 22 WNW 0,1 0 -
24.06.2018 23:00:00 5,2 5,1 5,3 8,2 10,1 11,2 29 16 45 25 NW 0,1 0 -
24.06.2018 22:00:00 5,3 5,1 5,4 8,6 10,1 11,2 32 17 41 22 WNW 0,1 0 -
24.06.2018 21:00:00 5,6 5,4 5,7 9,1 10,1 11,3 28 15 38 20 WNW 0,1 0 -
24.06.2018 20:00:00 5,5 5,3 5,7 9,8 10,1 11,3 23 12 29 16 WNW 0,1 0 -
24.06.2018 19:00:00 6,2 5,2 6,4 10,4 10,0 11,3 20 11 35 19 WNW 10 0 -
24.06.2018 18:00:00 6,8 4,6 7,3 10,6 9,9 11,3 23 13 38 20 WNW 55 0 -
24.06.2018 17:00:00 7,0 4,5 7,8 10,7 9,8 11,3 27 14 36 19 W 55 0 -
24.06.2018 16:00:00 6,2 5,2 6,8 10,0 9,7 11,3 18 10 34 18 WNW 20 0 -
24.06.2018 15:00:00 5,8 4,7 6,1 10,4 9,5 11,3 28 15 47 25 WNW 45 0 -
24.06.2018 14:00:00 6,6 5,3 7,4 10,4 9,4 11,3 34 18 50 27 WNW 30 0 -
24.06.2018 13:00:00 6,0 5,7 6,7 10,2 9,2 11,3 34 18 55 30 W 10 0 -
24.06.2018 12:00:00 5,7 5,3 6,8 10,4 9,1 11,4 35 19 53 28 W 6 6 -
24.06.2018 11:00:00 5,9 5,5 8,8 9,2 9,0 11,4 39 21 51 27 W 15 24 -
24.06.2018 10:00:00 4,9 4,8 6,0 7,6 9,0 11,4 43 23 54 29 W 0,1 0 -
24.06.2018 09:00:00 4,6 4,4 4,9 7,2 9,1 11,4 33 18 42 23 W 0,1 0 7,0
24.06.2018 08:00:00 4,7 4,6 5,1 6,8 9,2 11,4 27 14 41 22 WNW 0,1 0 -
24.06.2018 07:00:00 4,7 4,6 4,8 6,7 9,2 11,4 28 15 42 23 WNW 0,1 0 -
24.06.2018 06:00:00 4,5 4,4 4,5 6,6 9,3 11,4 33 18 49 26 WNW 0,1 0 -
24.06.2018 05:00:00 4,6 4,4 4,6 6,6 9,4 11,4 34 18 48 26 WNW 0,1 0 -
24.06.2018 04:00:00 4,6 4,5 4,6 6,7 9,5 11,4 32 17 54 29 WNW 0,1 0 -
24.06.2018 03:00:00 4,6 4,5 4,6 6,7 9,6 11,5 42 23 56 30 WNW 0,1 0 -
24.06.2018 02:00:00 4,5 4,3 4,5 6,8 9,7 11,5 42 23 57 31 WNW 0,1 0 -
24.06.2018 01:00:00 4,6 4,4 4,6 7,0 9,8 11,5 41 22 54 29 WNW 0,1 0 -
24.06.2018 00:00:00 4,7 4,6 4,7 7,1 9,9 11,5 38 21 59 32 WNW 0,1 0 -
23.06.2018 23:00:00 4,7 4,5 4,7 7,2 10,0 11,5 43 23 58 31 WNW 0,1 0 -
23.06.2018 22:00:00 4,7 4,5 4,7 7,4 10,1 11,5 42 23 62 34 WNW 0,1 0 -
23.06.2018 21:00:00 4,6 4,5 4,7 7,7 10,2 11,5 44 24 66 35 WNW 0,1 0 -
23.06.2018 20:00:00 4,6 4,4 4,7 8,1 10,2 11,5 46 25 61 33 WNW 0,1 0 -
23.06.2018 19:00:00 4,4 4,2 4,6 8,7 10,2 11,5 44 24 63 34 W 0,1 0 -
23.06.2018 18:00:00 5,2 5,1 5,6 9,3 10,1 11,5 38 20 58 32 W 0,2 0 -
23.06.2018 17:00:00 5,2 5,1 5,8 9,2 10,1 11,5 41 22 67 36 WNW 0,1 0 -
23.06.2018 16:00:00 5,3 5,1 5,6 9,3 10,0 11,5 42 23 59 32 W 0,1 0 -
23.06.2018 15:00:00 5,0 4,8 5,5 9,5 9,9 11,6 42 23 60 33 W 0,1 0 -
23.06.2018 14:00:00 5,1 4,9 6,0 9,5 9,9 11,6 48 26 61 33 W 0,2 0 -
23.06.2018 13:00:00 4,6 4,5 5,8 8,5 9,9 11,6 45 24 59 32 W 0,2 0 -
23.06.2018 12:00:00 3,8 3,5 4,4 8,3 9,9 11,6 38 21 55 30 W 0,2 0 -
23.06.2018 11:00:00 3,7 2,3 4,7 8,0 9,9 11,6 46 25 56 30 W 20 0 -
23.06.2018 10:00:00 3,3 2,9 4,3 7,1 10,0 11,6 38 20 53 29 W 15 0 -
23.06.2018 09:00:00 2,7 2,5 3,3 6,4 10,1 11,6 42 23 61 33 W 0,2 0 5,2
23.06.2018 08:00:00 2,4 2,1 2,6 6,4 10,3 11,6 50 27 69 37 W 0,1 0 -
23.06.2018 07:00:00 2,5 2,3 2,7 6,5 10,4 11,6 48 26 72 39 WNW 0,1 0 -
23.06.2018 06:00:00 2,8 2,5 2,8 6,7 10,5 11,6 51 27 63 34 WNW 0,1 0 -
23.06.2018 05:00:00 3,2 3,0 3,2 6,9 10,6 11,6 48 26 66 36 W 0,1 0 -
23.06.2018 04:00:00 3,6 3,4 3,6 7,1 10,8 11,6 44 24 63 34 W 0,1 0 -
23.06.2018 03:00:00 4,0 3,8 4,0 7,3 10,9 11,6 44 24 63 34 WNW 0,1 0 -
23.06.2018 02:00:00 4,5 4,3 4,5 7,5 11,0 11,6 46 25 61 33 W 0,1 0 -
23.06.2018 01:00:00 4,3 4,1 4,3 7,6 11,1 11,6 40 21 59 32 WNW 0,1 0 -
23.06.2018 00:00:00 4,4 4,2 4,4 7,8 11,2 11,6 45 25 60 32 W 0,1 0 -
22.06.2018 23:00:00 4,4 4,2 4,4 8,1 11,3 11,6 40 21 61 33 W 0,1 0 -
22.06.2018 22:00:00 5,0 4,8 5,0 8,4 11,4 11,6 47 26 64 35 W 0,1 0 -
22.06.2018 21:00:00 4,8 4,5 4,9 8,7 11,5 11,6 44 24 61 33 W 0,1 9 -
22.06.2018 20:00:00 4,9 4,5 4,7 9,2 11,6 11,6 41 22 58 31 WNW 50 28 -
22.06.2018 19:00:00 4,5 4,2 5,0 8,9 11,6 11,6 48 26 64 35 W 0,1 3 -
22.06.2018 18:00:00 4,6 4,4 5,0 8,8 11,7 11,6 39 21 54 29 W 0,1 2 -
22.06.2018 17:00:00 3,8 3,5 4,2 8,6 11,8 11,6 39 21 65 35 WNW 0,1 0 -
22.06.2018 16:00:00 3,3 3,1 3,8 8,8 11,9 11,6 39 21 67 36 WNW 0,1 0 -
22.06.2018 15:00:00 3,0 2,8 3,6 9,0 12,0 11,6 42 23 68 37 W 0,1 0 -
22.06.2018 14:00:00 2,4 2,1 3,1 9,1 12,1 11,6 49 26 65 35 W 0,1 0 -
22.06.2018 13:00:00 2,9 2,4 3,5 9,3 12,2 11,5 48 26 62 33 W 0,1 0 -
22.06.2018 12:00:00 3,4 3,1 4,4 8,9 12,3 11,5 41 22 59 32 W 0,1 0 -
22.06.2018 11:00:00 3,0 2,0 3,4 8,7 12,5 11,5 35 19 56 30 W 10 0 -
22.06.2018 10:00:00 2,9 1,1 3,6 7,9 12,7 11,5 34 19 47 26 W 60 0 -
22.06.2018 09:00:00 2,2 1,0 2,4 7,9 13,0 11,5 41 22 59 32 W 60 0 0,8
22.06.2018 08:00:00 2,0 1,1 2,3 7,9 13,2 11,5 36 19 59 32 W 60 2 -
22.06.2018 07:00:00 1,8 0,6 2,4 7,9 13,5 11,5 44 24 67 36 W 50 5 -
22.06.2018 06:00:00 1,8 1,3 1,9 8,0 13,8 11,5 41 22 64 35 W 40 0 -
22.06.2018 05:00:00 2,2 1,5 2,2 8,2 14,2 11,5 42 23 66 35 W 50 0 -
22.06.2018 04:00:00 2,7 1,4 2,5 8,4 14,5 11,5 41 22 56 30 W 60 0 -
22.06.2018 03:00:00 2,8 1,3 2,8 8,6 14,9 11,5 41 22 54 29 WNW 60 0 -
22.06.2018 02:00:00 2,8 1,2 1,8 9,0 15,3 11,5 34 19 46 25 WNW 60 0 -
22.06.2018 01:00:00 3,4 1,0 2,5 9,5 15,7 11,5 34 18 49 27 WNW 60 0 -
22.06.2018 00:00:00 4,2 0,2 3,0 10,3 16,2 11,5 38 21 51 28 WNW 60 0 -
21.06.2018 23:00:00 4,7 0,2 3,5 11,3 16,5 11,5 40 22 53 29 WNW 60 0 -
21.06.2018 22:00:00 5,9 0,9 3,8 12,6 16,8 11,5 35 19 62 33 NW 60 19 -
21.06.2018 21:00:00 6,9 3,3 5,2 14,2 17,1 11,4 41 22 68 37 WNW 70 46 -
21.06.2018 20:00:00 8,7 8,1 8,4 15,6 17,3 11,4 40 22 63 34 WNW 10 10 -
21.06.2018 19:00:00 9,0 8,8 9,3 16,4 17,4 11,4 49 26 64 34 WNW 0,1 0 -
21.06.2018 18:00:00 8,8 8,5 9,0 17,9 17,5 11,4 43 23 58 32 WNW 0,1 0 -
21.06.2018 17:00:00 10,4 8,7 10,8 19,8 17,3 11,4 43 23 63 34 WNW 20 0 -
21.06.2018 16:00:00 12,7 10,4 13,6 22,2 17,0 11,4 45 24 74 40 WNW 25 29 -
21.06.2018 15:00:00 18,4 8,1 19,8 22,4 16,7 11,4 57 31 80 43 W 35 29 -
21.06.2018 14:00:00 19,2 10,9 20,9 22,3 16,4 11,4 52 28 80 43 W 40 31 -
21.06.2018 13:00:00 19,8 12,0 22,8 21,6 16,1 11,4 51 28 78 42 WSW 50 45 -
21.06.2018 12:00:00 18,9 13,5 23,0 20,5 15,9 11,4 44 24 63 34 WSW 45 32 -
21.06.2018 11:00:00 18,7 12,6 20,2 19,7 15,7 11,4 36 20 55 30 WSW 45 52 -
21.06.2018 10:00:00 18,6 12,8 22,4 17,9 15,7 11,4 30 16 45 24 SW 35 60 -
21.06.2018 09:00:00 17,4 12,2 20,2 16,1 15,8 11,4 34 18 44 24 SW 35 60 0,0
21.06.2018 08:00:00 16,5 12,0 18,0 14,7 16,0 11,4 29 16 40 22 WSW 35 60 -
21.06.2018 07:00:00 15,3 11,0 15,7 13,9 16,3 11,4 29 16 41 22 WSW 50 59 -
21.06.2018 06:00:00 14,8 11,0 13,1 13,9 16,5 11,4 37 20 42 23 W 50 23 -
21.06.2018 05:00:00 14,2 10,8 12,3 14,3 16,8 11,4 34 19 39 21 W 50 0 -
21.06.2018 04:00:00 14,7 11,2 12,8 14,8 17,0 11,4 32 17 35 19 WSW 50 0 -
21.06.2018 03:00:00 14,7 11,4 12,4 15,4 17,3 11,4 24 13 32 17 WSW 50 0 -
21.06.2018 02:00:00 15,5 11,2 13,5 16,0 17,5 11,4 29 16 35 19 WSW 50 0 -
21.06.2018 01:00:00 16,3 11,5 14,6 16,7 17,8 11,4 28 15 33 18 SW 50 0 -
21.06.2018 00:00:00 16,1 11,3 14,1 17,4 18,0 11,4 25 14 29 16 SSW 50 0 -
20.06.2018 23:00:00 16,2 11,3 13,9 18,5 18,1 11,4 21 12 23 13 S 50 0 -
20.06.2018 22:00:00 16,4 11,5 14,2 19,9 18,1 11,4 19 10 21 11 S 50 8 -
20.06.2018 21:00:00 17,5 11,8 15,5 21,6 18,0 11,4 15 8 16 9 S 70 54 -
20.06.2018 20:00:00 18,9 12,4 18,7 23,5 17,8 11,4 14 7 22 12 S 70 28 -
20.06.2018 19:00:00 20,1 12,6 21,8 24,9 17,4 11,4 15 8 23 12 S 70 37 -
20.06.2018 18:00:00 20,4 12,5 23,3 25,9 16,9 11,4 15 8 23 12 S 65 44 -
20.06.2018 17:00:00 20,6 12,9 25,3 26,1 16,3 11,4 15 8 25 13 S 65 40 -
20.06.2018 16:00:00 20,4 12,5 25,7 26,0 15,7 11,4 11 6 30 16 S 55 46 -
20.06.2018 15:00:00 19,8 12,6 26,6 24,9 15,2 11,4 15 8 27 15 S 55 48 -
20.06.2018 14:00:00 19,3 13,0 26,7 22,5 14,7 11,4 12 6 24 13 SSW 55 20 -
20.06.2018 13:00:00 19,1 13,4 26,0 21,9 14,3 11,4 15 8 27 15 SSW 55 50 -
20.06.2018 12:00:00 18,1 12,5 24,9 19,5 14,1 11,4 16 9 27 14 SSW 55 51 -
20.06.2018 11:00:00 16,1 12,2 19,5 16,8 14,0 11,4 15 8 27 15 S 55 24 -
20.06.2018 10:00:00 15,3 11,8 18,8 15,1 14,0 11,4 16 8 29 16 S 50 21 -
20.06.2018 09:00:00 14,6 11,7 16,1 14,3 14,0 11,4 13 7 23 13 SSE 40 30 0,0
20.06.2018 08:00:00 13,8 11,9 14,6 13,6 14,1 11,4 13 7 17 9 ESE 40 50 -
20.06.2018 07:00:00 13,2 10,9 13,9 13,1 14,2 11,4 11 6 11 6 SE 70 11 -
20.06.2018 06:00:00 12,7 9,9 11,9 13,0 14,3 11,4 4 2 7 4 ESE 70 0 -
20.06.2018 05:00:00 12,2 10,2 11,2 13,0 14,4 11,4 6 3 9 5 NNW 35 0 -
20.06.2018 04:00:00 11,9 11,4 11,1 13,3 14,5 11,4 8 4 14 7 NNW 30 0 -
20.06.2018 03:00:00 12,0 11,6 11,7 13,5 14,7 11,4 11 6 16 9 NW 45 0 -
20.06.2018 02:00:00 12,0 11,3 11,5 13,7 14,8 11,4 13 7 16 9 WNW 50 0 -
20.06.2018 01:00:00 12,1 11,3 11,6 14,0 14,9 11,4 16 9 22 12 WNW 50 0 -
20.06.2018 00:00:00 12,4 11,2 12,1 14,4 15,0 11,4 19 10 22 12 NW 50 0 -
19.06.2018 23:00:00 12,5 10,9 12,1 14,8 15,1 11,4 19 10 22 12 NW 60 0 -
19.06.2018 22:00:00 12,6 11,0 12,1 15,4 15,1 11,4 16 9 19 11 NW 70 0 -
19.06.2018 21:00:00 13,1 11,1 12,8 16,2 15,1 11,4 15 8 22 12 NW 70 0 -
19.06.2018 20:00:00 13,7 11,1 13,7 17,0 15,0 11,4 16 8 22 12 WNW 50 0 -
19.06.2018 19:00:00 14,3 11,1 14,4 18,0 14,8 11,4 18 10 29 15 WNW 50 0 -
19.06.2018 18:00:00 14,9 10,8 15,3 19,2 14,5 11,4 22 12 31 17 W 50 8 -
19.06.2018 17:00:00 16,1 11,7 18,6 18,8 14,3 11,4 21 12 36 19 W 50 9 -
19.06.2018 16:00:00 15,1 11,1 17,0 18,1 14,0 11,4 27 15 36 19 W 50 1 -
19.06.2018 15:00:00 15,4 12,0 17,5 17,7 13,8 11,4 24 13 34 18 W 50 1 -
19.06.2018 14:00:00 15,0 11,3 16,4 17,6 13,6 11,3 18 10 29 16 W 50 8 -
19.06.2018 13:00:00 14,7 10,6 16,4 16,5 13,4 11,3 22 12 28 15 W 50 6 -
19.06.2018 12:00:00 13,5 10,6 14,1 15,5 13,3 11,3 20 11 29 15 W 30 4 -
19.06.2018 11:00:00 13,8 11,3 17,8 14,0 13,3 11,3 18 10 34 18 SW 15 7 -
19.06.2018 10:00:00 11,9 10,8 12,3 13,5 13,2 11,3 27 15 41 22 W 15 1 -
19.06.2018 09:00:00 12,5 10,9 13,3 12,8 13,3 11,3 21 11 28 15 W 50 2 0,0
19.06.2018 08:00:00 11,2 10,2 11,5 11,7 13,4 11,3 19 10 34 18 W 50 3 -
19.06.2018 07:00:00 10,2 9,3 10,1 11,0 13,6 11,3 25 14 32 17 W 45 26 -
19.06.2018 06:00:00 9,5 8,9 9,1 10,6 13,9 11,3 23 12 35 19 W 45 0 -
19.06.2018 05:00:00 8,8 8,2 7,8 10,6 14,1 11,3 27 14 34 18 W 40 0 -

tt = Température de l'air
td = dewpoint
tt 5cm = Température de l'air 5cm
tt -5cm = Température de l'air -5cm
tt -20cm = Température de l'air -20cm
tt -100cm = Température de l'air -100cm
ff = Vitesse du vent
fx = gusts
dd = Direction du vent
vv = visibility
sd = Ensoleillement
rr = Quantités de précipitations

stations d'obs. à proximité